Time;durP1;ratioP1;P1;durP2;ratioP2;P2;SDS_P1;SDS_P2;PMS_P1;PMS_P2;Temp;Humidity;BMP_temperature;BMP_pressure;BME280_temperature;BME280_humidity;BME280_pressure;Samples;Min_cycle;Max_cycle;Signal;HPM_P1;HPM_P2
2023/01/30 00:01:30;;;;;;;1999.90;999.90;;;-0.60;99.90;;;;;;5014232;28;20082;-75
2023/01/30 00:03:55;;;;;;;1999.90;999.90;;;-0.60;99.90;;;;;;5015811;28;20046;-75
2023/01/30 00:06:21;;;;;;;1999.90;999.90;;;-0.50;99.90;;;;;;5015617;28;20495;-75
2023/01/30 00:08:47;;;;;;;1999.90;999.90;;;-0.60;99.90;;;;;;5017278;28;20534;-75
2023/01/30 00:11:14;;;;;;;1999.90;999.90;;;-0.50;99.90;;;;;;5017214;28;20041;-75
2023/01/30 00:13:41;;;;;;;1999.90;999.90;;;-0.50;99.90;;;;;;5016631;28;20046;-75
2023/01/30 00:16:10;;;;;;;1999.90;999.90;;;-0.50;99.90;;;;;;5015596;28;20065;-75
2023/01/30 00:18:37;;;;;;;1999.90;999.90;;;-0.60;99.90;;;;;;5015276;28;20385;-75
2023/01/30 00:21:05;;;;;;;1999.90;999.90;;;-0.70;99.90;;;;;;5015510;28;20043;-75
2023/01/30 00:23:31;;;;;;;1999.90;999.90;;;-0.80;99.90;;;;;;5013726;28;20041;-75
2023/01/30 00:25:57;;;;;;;1999.90;999.90;;;-0.70;99.90;;;;;;5015076;28;20030;-74
2023/01/30 00:28:23;;;;;;;1999.90;999.90;;;-0.80;99.90;;;;;;5014045;28;20035;-74
2023/01/30 00:30:51;;;;;;;1999.90;999.90;;;-0.70;99.90;;;;;;5015615;28;20093;-74
2023/01/30 00:33:18;;;;;;;1999.90;999.90;;;-0.70;99.90;;;;;;5014354;28;20042;-74
2023/01/30 00:35:49;;;;;;;1999.90;999.90;;;-0.70;99.90;;;;;;5013671;28;20037;-74
2023/01/30 00:38:15;;;;;;;1999.90;999.90;;;-0.70;99.90;;;;;;5014798;28;20524;-74
2023/01/30 00:40:41;;;;;;;1999.90;999.90;;;-0.70;99.90;;;;;;5014098;28;20547;-74
2023/01/30 00:48:41;;;;;;;1999.90;999.90;;;-0.60;99.90;;;;;;5015162;28;20038;-74
2023/01/30 00:51:06;;;;;;;1999.90;999.90;;;-0.70;99.90;;;;;;5015178;28;20042;-74
2023/01/30 00:53:32;;;;;;;1999.90;999.90;;;-0.70;99.90;;;;;;5015341;28;20511;-74
2023/01/30 00:55:58;;;;;;;1999.90;999.90;;;-0.70;99.90;;;;;;5014999;28;20511;-74
2023/01/30 00:58:23;;;;;;;1999.90;999.90;;;-0.70;99.90;;;;;;5015022;28;20130;-74
2023/01/30 01:00:49;;;;;;;1999.90;999.90;;;-0.70;99.90;;;;;;5015031;28;20066;-74
2023/01/30 01:03:15;;;;;;;1999.90;999.90;;;-0.70;99.90;;;;;;5013915;28;20494;-74
2023/01/30 01:05:42;;;;;;;1999.90;999.90;;;-0.70;99.90;;;;;;5014516;28;20042;-74
2023/01/30 01:10:36;;;;;;;1999.90;999.90;;;-0.80;99.90;;;;;;5050533;28;20064;-75
2023/01/30 01:13:02;;;;;;;1999.90;999.90;;;-0.80;99.90;;;;;;5054536;28;20044;-75
2023/01/30 01:15:27;;;;;;;1999.90;999.90;;;-0.80;99.90;;;;;;5052535;28;20048;-75
2023/01/30 01:17:53;;;;;;;1999.90;999.90;;;-0.80;99.90;;;;;;5052969;28;20044;-75
2023/01/30 01:20:21;;;;;;;1999.90;999.90;;;-0.80;99.90;;;;;;5052853;28;20029;-76
2023/01/30 01:22:50;;;;;;;1999.90;999.90;;;-0.80;99.90;;;;;;5055063;28;20124;-75
2023/01/30 01:25:18;;;;;;;1999.90;999.90;;;-0.80;99.90;;;;;;5053438;28;20398;-76
2023/01/30 01:27:44;;;;;;;1999.90;999.90;;;-0.70;99.90;;;;;;5054712;28;20461;-75
2023/01/30 01:30:10;;;;;;;1999.90;999.90;;;-0.70;99.90;;;;;;5054207;28;20531;-75
2023/01/30 01:32:36;;;;;;;1999.90;999.90;;;-0.60;99.90;;;;;;5054333;28;20047;-76
2023/01/30 01:35:01;;;;;;;1999.90;999.90;;;-0.60;99.90;;;;;;5054339;28;20041;-76
2023/01/30 01:37:27;;;;;;;1999.90;999.90;;;-0.50;99.90;;;;;;5054403;28;20025;-75
2023/01/30 01:42:38;;;;;;;1999.90;999.90;;;-0.30;99.90;;;;;;5054487;28;20037;-75
2023/01/30 01:45:28;;;;;;;1999.90;999.90;;;-0.20;99.90;;;;;;5054010;28;20398;-75
2023/01/30 01:48:09;;;;;;;1999.90;999.90;;;-0.20;99.90;;;;;;5054622;28;20124;-76
2023/01/30 01:50:44;;;;;;;1999.90;999.90;;;-0.10;99.90;;;;;;5054305;28;20041;-75
2023/01/30 01:53:12;;;;;;;1999.90;999.90;;;-0.10;99.90;;;;;;5052599;28;20068;-77
2023/01/30 01:55:40;;;;;;;1999.90;999.90;;;0.00;99.90;;;;;;5052303;28;20033;-76
2023/01/30 01:58:49;;;;;;;1999.90;999.90;;;0.00;99.90;;;;;;5054002;28;20037;-75
2023/01/30 02:01:15;;;;;;;1999.90;999.90;;;0.00;99.90;;;;;;5030206;28;20520;-76
2023/01/30 02:03:44;;;;;;;1999.90;999.90;;;0.00;99.90;;;;;;5054080;28;20037;-76
2023/01/30 02:06:12;;;;;;;1999.90;999.90;;;0.00;99.90;;;;;;5053475;28;20025;-75
2023/01/30 02:08:43;;;;;;;1999.90;999.90;;;0.00;99.90;;;;;;5053085;28;20059;-76
2023/01/30 02:11:15;;;;;;;1999.90;999.90;;;0.00;99.90;;;;;;5054074;28;20064;-75
2023/01/30 02:13:40;;;;;;;1999.90;999.90;;;0.10;99.90;;;;;;5053128;28;20026;-75
2023/01/30 02:16:08;;;;;;;1999.90;999.90;;;0.10;99.90;;;;;;5054228;28;20033;-76
2023/01/30 02:18:37;;;;;;;1999.90;999.90;;;0.20;99.90;;;;;;5057159;28;20482;-75
2023/01/30 02:21:25;;;;;;;1999.90;999.90;;;0.30;99.90;;;;;;5057045;28;20091;-76
2023/01/30 02:24:11;;;;;;;1999.90;999.90;;;0.20;99.90;;;;;;5057377;28;20137;-76
2023/01/30 02:27:03;;;;;;;1999.90;999.90;;;0.30;99.90;;;;;;5057068;28;20035;-75
2023/01/30 02:29:50;;;;;;;1999.90;999.90;;;0.30;99.90;;;;;;5055318;28;20475;-76
2023/01/30 02:32:44;;;;;;;1999.90;999.90;;;0.30;99.90;;;;;;5057234;28;20108;-76
2023/01/30 02:35:27;;;;;;;1999.90;999.90;;;0.30;99.90;;;;;;5056846;28;20033;-76
2023/01/30 02:38:28;;;;;;;1999.90;999.90;;;0.30;99.90;;;;;;5057153;28;20445;-76
2023/01/30 02:41:10;;;;;;;1999.90;999.90;;;0.40;99.90;;;;;;5057349;28;20095;-76
2023/01/30 02:43:54;;;;;;;1999.90;999.90;;;0.40;99.90;;;;;;5057075;28;20047;-76
2023/01/30 02:46:38;;;;;;;1999.90;999.90;;;0.40;99.90;;;;;;5056631;28;20021;-76
2023/01/30 02:49:10;;;;;;;1999.90;999.90;;;0.40;99.90;;;;;;5056544;28;20105;-76
2023/01/30 02:51:37;;;;;;;1999.90;999.90;;;0.50;99.90;;;;;;5056738;28;20099;-76
2023/01/30 02:54:09;;;;;;;1999.90;999.90;;;0.50;99.90;;;;;;5056610;28;20088;-76
2023/01/30 02:56:53;;;;;;;1999.90;999.90;;;0.50;99.90;;;;;;5056514;28;20529;-76
2023/01/30 02:59:33;;;;;;;1999.90;999.90;;;0.60;99.90;;;;;;5054871;28;20084;-77
2023/01/30 03:02:17;;;;;;;1999.90;999.90;;;0.60;99.90;;;;;;5056703;28;20045;-76
2023/01/30 03:05:07;;;;;;;1999.90;999.90;;;0.60;99.90;;;;;;5055804;28;20033;-75
2023/01/30 03:08:02;;;;;;;1999.90;999.90;;;0.60;99.90;;;;;;5056643;28;20168;-76
2023/01/30 03:10:42;;;;;;;1999.90;999.90;;;0.60;99.90;;;;;;5056248;28;20117;-76
2023/01/30 03:13:10;;;;;;;1999.90;999.90;;;0.70;99.90;;;;;;5056816;28;20029;-75
2023/01/30 03:15:49;;;;;;;1999.90;999.90;;;0.70;99.90;;;;;;5056248;28;20038;-76
2023/01/30 03:18:17;;;;;;;1999.90;999.90;;;0.70;99.90;;;;;;5055768;28;20041;-76
2023/01/30 03:20:43;;;;;;;1999.90;999.90;;;0.60;99.90;;;;;;5056178;28;20120;-75
2023/01/30 03:23:08;;;;;;;1999.90;999.90;;;0.70;99.90;;;;;;5056276;28;20116;-75
2023/01/30 03:25:36;;;;;;;1999.90;999.90;;;0.70;99.90;;;;;;5054569;28;20033;-75
2023/01/30 03:28:04;;;;;;;1999.90;999.90;;;0.70;99.90;;;;;;5055370;28;20183;-76
2023/01/30 03:30:30;;;;;;;1999.90;999.90;;;0.70;99.90;;;;;;5056273;28;20187;-76
2023/01/30 03:32:55;;;;;;;1999.90;999.90;;;0.70;99.90;;;;;;5056679;28;20152;-76
2023/01/30 03:35:21;;;;;;;1999.90;999.90;;;0.70;99.90;;;;;;5054295;28;20478;-76
2023/01/30 03:37:47;;;;;;;1999.90;999.90;;;0.80;99.90;;;;;;5054398;28;20037;-76
2023/01/30 03:40:14;;;;;;;1999.90;999.90;;;0.80;99.90;;;;;;5055511;28;20399;-76
2023/01/30 03:42:40;;;;;;;1999.90;999.90;;;0.70;99.90;;;;;;5055625;28;20041;-75
2023/01/30 03:45:06;;;;;;;1999.90;999.90;;;0.70;99.90;;;;;;5055570;28;20372;-76
2023/01/30 03:47:31;;;;;;;1999.90;999.90;;;0.70;99.90;;;;;;5055547;28;20116;-76
2023/01/30 03:49:57;;;;;;;1999.90;999.90;;;0.70;99.90;;;;;;5055652;28;20104;-76
2023/01/30 03:52:22;;;;;;;1999.90;999.90;;;0.70;99.90;;;;;;5054195;28;20080;-76
2023/01/30 03:54:48;;;;;;;1999.90;999.90;;;0.70;99.90;;;;;;5055020;28;20032;-76
2023/01/30 03:57:13;;;;;;;1999.90;999.90;;;0.70;99.90;;;;;;5055634;28;20033;-76
2023/01/30 03:59:39;;;;;;;1999.90;999.90;;;0.70;99.90;;;;;;5054986;28;20040;-76
2023/01/30 04:02:04;;;;;;;1999.90;999.90;;;0.60;99.90;;;;;;5054097;28;20068;-76
2023/01/30 04:04:30;;;;;;;1999.90;999.90;;;0.60;99.90;;;;;;5055443;28;20495;-76
2023/01/30 04:06:55;;;;;;;1999.90;999.90;;;0.60;99.90;;;;;;5055494;28;20092;-76
2023/01/30 04:09:21;;;;;;;1999.90;999.90;;;0.60;99.90;;;;;;5053351;28;20037;-75
2023/01/30 04:11:47;;;;;;;1999.90;999.90;;;0.60;99.90;;;;;;5055567;28;20061;-75
2023/01/30 04:14:12;;;;;;;1999.90;999.90;;;0.50;99.90;;;;;;5053634;28;20112;-76
2023/01/30 04:16:38;;;;;;;1999.90;999.90;;;0.50;99.90;;;;;;5055547;28;20033;-76
2023/01/30 04:19:04;;;;;;;1999.90;999.90;;;0.50;99.90;;;;;;5054812;28;20104;-76
2023/01/30 04:21:29;;;;;;;1999.90;999.90;;;0.50;99.90;;;;;;5054982;28;20176;-76
2023/01/30 04:23:55;;;;;;;1999.90;999.90;;;0.50;99.90;;;;;;5055375;28;20586;-76
2023/01/30 04:26:20;;;;;;;1999.90;999.90;;;0.50;99.90;;;;;;5054585;28;20032;-76
2023/01/30 04:28:46;;;;;;;1999.90;999.90;;;0.50;99.90;;;;;;5054980;28;20037;-76
2023/01/30 04:31:11;;;;;;;1999.90;999.90;;;0.50;99.90;;;;;;5055221;28;20029;-76
2023/01/30 04:33:38;;;;;;;1999.90;999.90;;;0.50;99.90;;;;;;5055081;28;20069;-76
2023/01/30 04:36:05;;;;;;;1999.90;999.90;;;0.50;99.90;;;;;;5054550;28;20053;-76
2023/01/30 04:38:31;;;;;;;1999.90;999.90;;;0.50;99.90;;;;;;5054799;28;20025;-76
2023/01/30 04:40:57;;;;;;;1999.90;999.90;;;0.50;99.90;;;;;;5055155;28;20116;-76
2023/01/30 04:43:24;;;;;;;1999.90;999.90;;;0.40;99.90;;;;;;5054742;28;20038;-76
2023/01/30 04:45:50;;;;;;;1999.90;999.90;;;0.40;99.90;;;;;;5053331;28;20039;-76
2023/01/30 04:48:16;;;;;;;1999.90;999.90;;;0.40;99.90;;;;;;5053106;28;20079;-76
2023/01/30 04:50:43;;;;;;;1999.90;999.90;;;0.40;99.90;;;;;;5053405;28;20099;-76
2023/01/30 04:53:10;;;;;;;1999.90;999.90;;;0.40;99.90;;;;;;5054956;28;20045;-76
2023/01/30 04:55:36;;;;;;;1999.90;999.90;;;0.30;99.90;;;;;;5054600;28;20040;-75
2023/01/30 04:58:02;;;;;;;1999.90;999.90;;;0.30;99.90;;;;;;5054645;28;20037;-76
2023/01/30 05:00:28;;;;;;;1999.90;999.90;;;0.30;99.90;;;;;;5054837;28;20036;-76
2023/01/30 05:02:54;;;;;;;1999.90;999.90;;;0.30;99.90;;;;;;5054656;28;20515;-76
2023/01/30 05:05:21;;;;;;;1999.90;999.90;;;0.30;99.90;;;;;;5052634;28;20115;-75
2023/01/30 05:07:48;;;;;;;1999.90;999.90;;;0.30;99.90;;;;;;5054720;28;20048;-77
2023/01/30 05:10:13;;;;;;;1999.90;999.90;;;0.30;99.90;;;;;;5054222;28;20113;-76
2023/01/30 05:12:39;;;;;;;1999.90;999.90;;;0.20;99.90;;;;;;5054630;28;20120;-76
2023/01/30 05:15:05;;;;;;;1999.90;999.90;;;0.20;99.90;;;;;;5054500;28;20034;-75
2023/01/30 05:17:31;;;;;;;1999.90;999.90;;;0.20;99.90;;;;;;5054292;28;20030;-75
2023/01/30 05:19:57;;;;;;;1999.90;999.90;;;0.10;99.90;;;;;;5054158;28;20029;-76
2023/01/30 05:22:22;;;;;;;1999.90;999.90;;;0.10;99.90;;;;;;5054582;28;20483;-77
2023/01/30 05:24:48;;;;;;;1999.90;999.90;;;0.10;99.90;;;;;;5054204;28;20508;-76
2023/01/30 05:27:14;;;;;;;1999.90;999.90;;;0.10;99.90;;;;;;5054608;28;20483;-76
2023/01/30 05:29:39;;;;;;;1999.90;999.90;;;0.00;99.90;;;;;;5052669;28;20454;-76
2023/01/30 05:32:05;;;;;;;1999.90;999.90;;;0.00;99.90;;;;;;5054033;28;20064;-76
2023/01/30 05:34:30;;;;;;;1999.90;999.90;;;0.00;99.90;;;;;;5052486;28;20507;-75
2023/01/30 05:36:56;;;;;;;1999.90;999.90;;;0.10;99.90;;;;;;5054266;28;20068;-75
2023/01/30 05:39:21;;;;;;;1999.90;999.90;;;0.10;99.90;;;;;;5053909;28;20372;-74
2023/01/30 05:41:47;;;;;;;1999.90;999.90;;;0.00;99.90;;;;;;5053804;28;20038;-75
2023/01/30 05:44:12;;;;;;;1999.90;999.90;;;0.00;99.90;;;;;;5053902;28;20040;-75
2023/01/30 05:46:40;;;;;;;1999.90;999.90;;;0.10;99.90;;;;;;5053929;28;20038;-75
2023/01/30 05:49:06;;;;;;;1999.90;999.90;;;0.10;99.90;;;;;;5054542;28;20072;-75
2023/01/30 05:51:32;;;;;;;1999.90;999.90;;;0.10;99.90;;;;;;5060583;28;20125;-76
2023/01/30 05:53:57;;;;;;;1999.90;999.90;;;0.10;99.90;;;;;;5060957;28;20116;-76
2023/01/30 05:56:23;;;;;;;1999.90;999.90;;;0.10;99.90;;;;;;5060455;28;20088;-77
2023/01/30 05:58:50;;;;;;;1999.90;999.90;;;0.10;99.90;;;;;;5060482;28;20048;-76
2023/01/30 06:01:16;;;;;;;1999.90;999.90;;;0.10;99.90;;;;;;5060255;28;20109;-76
2023/01/30 06:03:41;;;;;;;1999.90;999.90;;;0.20;99.90;;;;;;5060387;28;20041;-75
2023/01/30 06:06:07;;;;;;;1999.90;999.90;;;0.20;99.90;;;;;;5058835;28;20033;-75
2023/01/30 06:08:33;;;;;;;1999.90;999.90;;;0.20;99.90;;;;;;5059727;28;20036;-76
2023/01/30 06:11:03;;;;;;;1999.90;999.90;;;0.20;99.90;;;;;;5059241;28;20033;-75
2023/01/30 06:13:28;;;;;;;1999.90;999.90;;;0.20;99.90;;;;;;5060300;28;20040;-75
2023/01/30 06:15:54;;;;;;;1999.90;999.90;;;0.20;99.90;;;;;;5060212;28;20383;-75
2023/01/30 06:18:20;;;;;;;1999.90;999.90;;;0.20;99.90;;;;;;5060342;28;20483;-74
2023/01/30 06:20:52;;;;;;;1999.90;999.90;;;0.20;99.90;;;;;;5060264;28;20042;-75
2023/01/30 06:23:18;;;;;;;1999.90;999.90;;;0.30;99.90;;;;;;5060030;28;20042;-76
2023/01/30 06:25:45;;;;;;;1999.90;999.90;;;0.30;99.90;;;;;;5060064;28;20477;-75
2023/01/30 06:28:11;;;;;;;1999.90;999.90;;;0.30;99.90;;;;;;5060323;28;20034;-75
2023/01/30 06:30:37;;;;;;;1999.90;999.90;;;0.30;99.90;;;;;;5059922;28;20033;-75
2023/01/30 06:33:03;;;;;;;1999.90;999.90;;;0.30;99.90;;;;;;5060183;28;20480;-76
2023/01/30 06:35:29;;;;;;;1999.90;999.90;;;0.30;99.90;;;;;;5059692;28;20026;-75
2023/01/30 06:37:54;;;;;;;1999.90;999.90;;;0.30;99.90;;;;;;5060436;28;20034;-77
2023/01/30 06:40:20;;;;;;;1999.90;999.90;;;0.30;99.90;;;;;;5059719;28;20040;-75
2023/01/30 06:42:47;;;;;;;1999.90;999.90;;;0.30;99.90;;;;;;5058470;28;20076;-75
2023/01/30 06:45:14;;;;;;;1999.90;999.90;;;0.30;99.90;;;;;;5057870;28;20033;-74
2023/01/30 06:47:51;;;;;;;1999.90;999.90;;;0.30;99.90;;;;;;5058506;28;20553;-76
2023/01/30 06:50:19;;;;;;;1999.90;999.90;;;0.30;99.90;;;;;;5058257;28;20517;-75
2023/01/30 06:52:46;;;;;;;1999.90;999.90;;;0.30;99.90;;;;;;5059743;28;20033;-75
2023/01/30 06:55:14;;;;;;;1999.90;999.90;;;0.30;99.90;;;;;;5057539;28;20025;-74
2023/01/30 06:57:40;;;;;;;1999.90;999.90;;;0.40;99.90;;;;;;5058930;28;20044;-74
2023/01/30 07:00:08;;;;;;;1999.90;999.90;;;0.40;99.90;;;;;;5061527;28;20035;-72
2023/01/30 07:02:34;;;;;;;1999.90;999.90;;;0.40;99.90;;;;;;5061249;28;20045;-73
2023/01/30 07:05:01;;;;;;;1999.90;999.90;;;0.50;99.90;;;;;;5056177;28;20033;-80
2023/01/30 07:07:28;;;;;;;1999.90;999.90;;;0.60;99.90;;;;;;5056657;28;20165;-76
2023/01/30 07:09:53;;;;;;;1999.90;999.90;;;0.70;99.90;;;;;;5068390;22;20050;-74
2023/01/30 07:12:19;;;;;;;1999.90;999.90;;;0.80;99.90;;;;;;5035189;28;20402;-76
2023/01/30 07:14:45;;;;;;;1999.90;999.90;;;0.90;99.90;;;;;;5036044;28;20113;-74
2023/01/30 07:17:10;;;;;;;1999.90;999.90;;;0.90;99.90;;;;;;5034283;28;20584;-74
2023/01/30 07:19:37;;;;;;;1999.90;999.90;;;0.90;99.90;;;;;;5035347;28;20034;-73
2023/01/30 07:22:03;;;;;;;1999.90;999.90;;;1.00;99.90;;;;;;5034133;28;20040;-73
2023/01/30 07:24:29;;;;;;;1999.90;999.90;;;1.00;99.90;;;;;;5035903;28;20057;-73
2023/01/30 07:26:55;;;;;;;1999.90;999.90;;;1.00;99.90;;;;;;5036355;28;20478;-73
2023/01/30 07:29:20;;;;;;;1999.90;999.90;;;1.10;99.90;;;;;;5036216;28;20488;-73
2023/01/30 07:31:46;;;;;;;1999.90;999.90;;;1.10;99.90;;;;;;5036115;28;20391;-73
2023/01/30 07:34:11;;;;;;;1999.90;999.90;;;1.20;99.90;;;;;;5035361;28;20623;-74
2023/01/30 07:36:37;;;;;;;1999.90;999.90;;;1.20;99.90;;;;;;5035858;28;20414;-74
2023/01/30 07:39:03;;;;;;;1999.90;999.90;;;1.30;99.90;;;;;;5034000;28;20037;-73
2023/01/30 07:41:29;;;;;;;1999.90;999.90;;;1.30;99.90;;;;;;5034655;28;20030;-73
2023/01/30 07:43:54;;;;;;;1999.90;999.90;;;1.30;99.90;;;;;;5034399;28;20084;-74
2023/01/30 07:46:20;;;;;;;1999.90;999.90;;;1.30;99.90;;;;;;5035747;28;20506;-73
2023/01/30 07:48:46;;;;;;;1999.90;999.90;;;1.30;99.90;;;;;;5035935;28;20440;-73
2023/01/30 07:51:11;;;;;;;1999.90;999.90;;;1.40;99.90;;;;;;5036059;28;20030;-73
2023/01/30 07:53:37;;;;;;;1999.90;999.90;;;1.40;99.90;;;;;;5035627;28;20472;-73
2023/01/30 07:56:13;;;;;;;1999.90;999.90;;;1.50;99.90;;;;;;5034092;28;20514;-73
2023/01/30 07:58:38;;;;;;;1999.90;999.90;;;1.50;99.90;;;;;;5036020;28;20057;-73
2023/01/30 08:01:04;;;;;;;1999.90;999.90;;;1.50;99.90;;;;;;5035824;28;20033;-73
2023/01/30 08:03:30;;;;;;;1999.90;999.90;;;1.60;99.90;;;;;;5035565;28;20476;-74
2023/01/30 08:05:55;;;;;;;1999.90;999.90;;;1.70;99.90;;;;;;5035224;28;20037;-74
2023/01/30 08:08:21;;;;;;;1999.90;999.90;;;1.70;99.90;;;;;;5035785;28;20547;-74
2023/01/30 08:10:49;;;;;;;1999.90;999.90;;;1.70;99.90;;;;;;5035466;28;20034;-74
2023/01/30 08:13:15;;;;;;;1999.90;999.90;;;1.80;99.90;;;;;;5035620;28;20406;-76
2023/01/30 08:15:41;;;;;;;1999.90;999.90;;;1.80;99.90;;;;;;5035383;28;20037;-73
2023/01/30 08:18:06;;;;;;;1999.90;999.90;;;1.90;99.90;;;;;;5035874;28;20109;-74
2023/01/30 08:20:32;;;;;;;1999.90;999.90;;;1.90;99.90;;;;;;5035343;28;20037;-74
2023/01/30 08:22:58;;;;;;;1999.90;999.90;;;1.80;99.90;;;;;;5035410;28;20050;-73
2023/01/30 08:25:24;;;;;;;1999.90;999.90;;;1.80;99.90;;;;;;5035436;28;20184;-73
2023/01/30 08:27:51;;;;;;;1999.90;999.90;;;1.80;99.90;;;;;;5035639;28;20104;-73
2023/01/30 08:30:17;;;;;;;1999.90;999.90;;;1.70;99.90;;;;;;5033831;28;20049;-73
2023/01/30 08:32:42;;;;;;;1999.90;999.90;;;1.60;99.90;;;;;;5035193;28;20061;-73
2023/01/30 08:35:09;;;;;;;1999.90;999.90;;;1.70;99.90;;;;;;5034839;28;20066;-74
2023/01/30 08:37:35;;;;;;;1999.90;999.90;;;1.60;99.90;;;;;;5035178;28;20049;-74
2023/01/30 08:40:00;;;;;;;1999.90;999.90;;;1.70;99.90;;;;;;5035274;28;20349;-75
2023/01/30 08:42:26;;;;;;;1999.90;999.90;;;1.60;99.90;;;;;;5035350;28;20088;-74
2023/01/30 08:44:51;;;;;;;1999.90;999.90;;;1.70;99.90;;;;;;5034891;28;20037;-73
2023/01/30 08:47:17;;;;;;;1999.90;999.90;;;1.80;99.90;;;;;;5035100;28;20042;-74
2023/01/30 08:49:42;;;;;;;1999.90;999.90;;;1.70;99.90;;;;;;5034594;28;20399;-73
2023/01/30 08:52:09;;;;;;;1999.90;999.90;;;1.80;99.90;;;;;;5034940;28;20038;-74
2023/01/30 08:54:34;;;;;;;1999.90;999.90;;;2.00;99.90;;;;;;5034838;28;20036;-74
2023/01/30 08:57:00;;;;;;;1999.90;999.90;;;2.00;99.90;;;;;;5034746;28;20045;-74
2023/01/30 08:59:25;;;;;;;1999.90;999.90;;;2.00;99.90;;;;;;5034807;28;20030;-75
2023/01/30 09:01:51;;;;;;;1999.90;999.90;;;2.10;99.90;;;;;;5034795;28;20057;-74
2023/01/30 09:04:16;;;;;;;1999.90;999.90;;;2.10;99.90;;;;;;5034566;28;20084;-75
2023/01/30 09:06:42;;;;;;;1999.90;999.90;;;2.20;99.90;;;;;;5034819;28;20037;-74
2023/01/30 09:09:07;;;;;;;1999.90;999.90;;;2.20;99.90;;;;;;5034481;28;20034;-73
2023/01/30 09:11:33;;;;;;;1999.90;999.90;;;2.30;99.90;;;;;;5033386;28;20034;-74
2023/01/30 09:13:58;;;;;;;1999.90;999.90;;;2.30;99.90;;;;;;5034802;28;20034;-74
2023/01/30 09:16:24;;;;;;;1999.90;999.90;;;2.40;99.90;;;;;;5034283;28;20049;-74
2023/01/30 09:18:49;;;;;;;1999.90;999.90;;;2.40;99.90;;;;;;5034266;28;20077;-74
2023/01/30 09:21:15;;;;;;;1999.90;999.90;;;2.50;99.90;;;;;;5034645;28;20034;-74
2023/01/30 09:23:41;;;;;;;1999.90;999.90;;;2.50;99.90;;;;;;5034379;28;20145;-74
2023/01/30 09:26:06;;;;;;;1999.90;999.90;;;2.60;99.90;;;;;;5033626;28;20036;-74
2023/01/30 09:28:33;;;;;;;1999.90;999.90;;;2.60;99.90;;;;;;5034529;28;20034;-74
2023/01/30 09:30:59;;;;;;;1999.90;999.90;;;2.60;99.90;;;;;;5034417;28;20030;-73
2023/01/30 09:33:25;;;;;;;1999.90;999.90;;;2.60;99.90;;;;;;5034502;28;20545;-73
2023/01/30 09:35:52;;;;;;;1999.90;999.90;;;2.60;99.90;;;;;;5034151;28;20062;-75
2023/01/30 09:38:18;;;;;;;1999.90;999.90;;;2.60;99.90;;;;;;5034653;28;20033;-74
2023/01/30 09:40:58;;;;;;;1999.90;999.90;;;2.60;99.90;;;;;;5034023;28;20639;-73
2023/01/30 09:43:42;;;;;;;1999.90;999.90;;;2.60;99.90;;;;;;5034408;28;20062;-73
2023/01/30 09:46:30;;;;;;;1999.90;999.90;;;2.60;99.90;;;;;;5033742;28;20034;-77
2023/01/30 09:49:17;;;;;;;1999.90;999.90;;;2.70;99.90;;;;;;5034390;28;20573;-73
2023/01/30 09:51:46;;;;;;;1999.90;999.90;;;2.70;99.90;;;;;;5034269;28;20029;-74
2023/01/30 09:54:29;;;;;;;1999.90;999.90;;;2.70;99.90;;;;;;5034456;28;20069;-75
2023/01/30 09:57:00;;;;;;;1999.90;999.90;;;2.70;99.90;;;;;;5034518;28;20026;-75
2023/01/30 09:59:34;;;;;;;1999.90;999.90;;;2.70;99.90;;;;;;5037014;28;20062;-80
2023/01/30 10:02:08;;;;;;;1999.90;999.90;;;2.80;99.90;;;;;;5038496;28;20483;-77
2023/01/30 10:04:45;;;;;;;1999.90;999.90;;;2.80;99.90;;;;;;5036498;28;20061;-76
2023/01/30 10:07:23;;;;;;;1999.90;999.90;;;2.90;99.90;;;;;;5036574;28;20053;-77
2023/01/30 10:10:09;;;;;;;1999.90;999.90;;;2.90;99.90;;;;;;5036802;28;20049;-77
2023/01/30 10:13:16;;;;;;;1999.90;999.90;;;3.00;99.90;;;;;;5035682;28;20092;-76
2023/01/30 10:16:01;;;;;;;1999.90;999.90;;;3.00;99.90;;;;;;5035480;28;20089;-76
2023/01/30 10:18:32;;;;;;;1999.90;999.90;;;3.00;99.90;;;;;;5035091;28;20046;-77
2023/01/30 10:21:28;;;;;;;1999.90;999.90;;;3.00;99.90;;;;;;5034297;28;20026;-76
2023/01/30 10:24:00;;;;;;;1999.90;999.90;;;2.90;99.90;;;;;;5033532;28;20113;-76
2023/01/30 10:26:27;;;;;;;1999.90;999.90;;;2.90;99.90;;;;;;5034381;28;20113;-76
2023/01/30 10:29:23;;;;;;;1999.90;999.90;;;2.80;99.90;;;;;;5036798;28;20091;-77
2023/01/30 10:31:54;;;;;;;1999.90;999.90;;;2.80;99.90;;;;;;5037281;28;20109;-77
2023/01/30 10:34:26;;;;;;;1999.90;999.90;;;2.70;99.90;;;;;;5036896;28;20029;-77
2023/01/30 10:37:21;;;;;;;1999.90;999.90;;;2.70;99.90;;;;;;5037780;28;20034;-77
2023/01/30 10:40:11;;;;;;;1999.90;999.90;;;2.70;99.90;;;;;;5036396;28;20456;-75
2023/01/30 10:42:43;;;;;;;1999.90;999.90;;;2.70;99.90;;;;;;5036938;28;20038;-75
2023/01/30 10:45:16;;;;;;;1999.90;999.90;;;2.70;99.90;;;;;;5036687;28;20030;-75
2023/01/30 10:48:09;;;;;;;1999.90;999.90;;;2.70;99.90;;;;;;5036391;28;20038;-76
2023/01/30 10:50:56;;;;;;;1999.90;999.90;;;2.70;99.90;;;;;;5037879;28;20487;-77
2023/01/30 10:53:25;;;;;;;1999.90;999.90;;;2.80;99.90;;;;;;5037811;28;20096;-75
2023/01/30 10:55:59;;;;;;;1999.90;999.90;;;2.70;99.90;;;;;;5037756;28;20030;-77
2023/01/30 10:58:52;;;;;;;1999.90;999.90;;;2.80;99.90;;;;;;5038284;28;20030;-77
2023/01/30 11:01:41;;;;;;;1999.90;999.90;;;2.80;99.90;;;;;;5037788;28;20160;-74
2023/01/30 11:04:28;;;;;;;1999.90;999.90;;;2.80;99.90;;;;;;5037369;28;20066;-75
2023/01/30 11:06:55;;;;;;;1999.90;999.90;;;2.80;99.90;;;;;;5027719;28;20034;-75
2023/01/30 11:09:21;;;;;;;1999.90;999.90;;;2.80;99.90;;;;;;5031672;28;20128;-79
2023/01/30 11:11:48;;;;;;;1999.90;999.90;;;2.80;99.90;;;;;;5041304;28;20045;-79
2023/01/30 11:14:14;;;;;;;1999.90;999.90;;;2.90;99.90;;;;;;5038814;28;20034;-78
2023/01/30 11:16:46;;;;;;;1999.90;999.90;;;2.90;99.90;;;;;;5037144;28;20034;-76
2023/01/30 11:19:14;;;;;;;1999.90;999.90;;;2.90;99.90;;;;;;5041990;28;20029;-82
2023/01/30 11:21:42;;;;;;;1999.90;999.90;;;2.90;99.90;;;;;;5045046;28;20423;-76
2023/01/30 11:24:51;;;;;;;1999.90;999.90;;;2.90;99.90;;;;;;5039981;28;20184;-77
2023/01/30 11:27:31;;;;;;;1999.90;999.90;;;3.00;99.90;;;;;;5038298;28;20128;-77
2023/01/30 11:30:11;;;;;;;1999.90;999.90;;;3.00;99.90;;;;;;5037624;28;20037;-75
2023/01/30 11:32:36;;;;;;;1999.90;999.90;;;3.00;99.90;;;;;;5017265;28;20062;-77
2023/01/30 11:35:13;;;;;;;1999.90;999.90;;;3.00;99.90;;;;;;5016325;28;20069;-77
2023/01/30 11:37:41;;;;;;;1999.90;999.90;;;3.00;99.90;;;;;;5014961;28;20114;-76
2023/01/30 11:40:29;;;;;;;1999.90;999.90;;;3.00;99.90;;;;;;5016062;28;20519;-77
2023/01/30 11:43:04;;;;;;;1999.90;999.90;;;3.10;99.90;;;;;;5016539;28;20092;-76
2023/01/30 11:45:43;;;;;;;1999.90;999.90;;;3.10;99.90;;;;;;5018666;28;20109;-76
2023/01/30 11:48:19;;;;;;;1999.90;999.90;;;3.10;99.90;;;;;;5036371;28;20034;-80
2023/01/30 11:50:48;;;;;;;1999.90;999.90;;;3.10;99.90;;;;;;5036339;28;20526;-76
2023/01/30 11:53:25;;;;;;;1999.90;999.90;;;3.10;99.90;;;;;;5035981;28;20089;-76
2023/01/30 11:55:53;;;;;;;1999.90;999.90;;;3.10;99.90;;;;;;5036101;28;20030;-76
2023/01/30 11:58:18;;;;;;;1999.90;999.90;;;3.00;99.90;;;;;;5037333;28;20042;-77
2023/01/30 12:00:46;;;;;;;1999.90;999.90;;;3.00;99.90;;;;;;5040977;28;20041;-78
2023/01/30 12:03:18;;;;;;;1999.90;999.90;;;3.10;99.90;;;;;;5038164;28;20050;-77
2023/01/30 12:05:46;;;;;;;1999.90;999.90;;;3.00;99.90;;;;;;5034346;28;20040;-77
2023/01/30 12:08:20;;;;;;;1999.90;999.90;;;3.10;99.90;;;;;;5036130;28;20041;-77
2023/01/30 12:10:49;;;;;;;1999.90;999.90;;;3.00;99.90;;;;;;5033264;28;20038;-76
2023/01/30 12:13:36;;;;;;;1999.90;999.90;;;3.00;99.90;;;;;;5035515;28;20180;-76
2023/01/30 12:16:25;;;;;;;1999.90;999.90;;;3.00;99.90;;;;;;5034925;28;20073;-76
2023/01/30 12:19:11;;;;;;;1999.90;999.90;;;3.10;99.90;;;;;;5035815;28;20112;-77
2023/01/30 12:21:48;;;;;;;1999.90;999.90;;;3.10;99.90;;;;;;5035851;28;20117;-77
2023/01/30 12:24:40;;;;;;;1999.90;999.90;;;3.10;99.90;;;;;;5035504;28;20077;-77
2023/01/30 12:27:17;;;;;;;1999.90;999.90;;;3.10;99.90;;;;;;5033173;28;20041;-77
2023/01/30 12:30:01;;;;;;;1999.90;999.90;;;3.10;99.90;;;;;;5035493;28;20065;-77
2023/01/30 12:32:29;;;;;;;1999.90;999.90;;;3.20;99.90;;;;;;5035574;28;20084;-77